Stryker, Montana
Current Conditions -  °F | °C
As of 8:55 PM on Sunday 21 Dec 2014 (Local Time) from KGPI Reporting Station
Overcast Overcast  
Wind Chill: 30°   Ceiling: 7000
Heat Index: 36°   Visibility: 10mi
Dew Point: 29°   Wind: 8mph
Humidity: 76%   Direction: 210°SSW
Pressure: 29.8"   Gusts: NA
Location:  48.67°N, 114.78°W
Report Text: KGPI 220355Z 21007KT 10SM OVC070 02/M02 A2980 RMK AO2 SLP111 T00221017 $
Loading
Personal Weather Stations






























Interactive Weather Map New forecast layout! Learn more

10-Day Weather Forecast

Advertisements
Track Severe Weather on mobile